sensor_id;sensor_type;location;lat;lon;timestamp;P1;durP1;ratioP1;P2;durP2;ratioP2
21258;SDS011;10787;53.364;-1.480;2024-03-23T00:53:37;12.83;;;2.80;;
21258;SDS011;10787;53.364;-1.480;2024-03-23T00:56:22;8.93;;;2.37;;
21258;SDS011;10787;53.364;-1.480;2024-03-23T00:59:06;11.63;;;2.40;;
21258;SDS011;10787;53.364;-1.480;2024-03-23T01:01:50;9.13;;;2.57;;
21258;SDS011;10787;53.364;-1.480;2024-03-23T01:04:34;12.60;;;2.60;;
21258;SDS011;10787;53.364;-1.480;2024-03-23T01:07:18;15.83;;;3.10;;
21258;SDS011;10787;53.364;-1.480;2024-03-23T01:10:02;14.03;;;2.87;;
21258;SDS011;10787;53.364;-1.480;2024-03-23T01:12:46;19.37;;;2.77;;
21258;SDS011;10787;53.364;-1.480;2024-03-23T01:15:31;13.50;;;3.37;;
21258;SDS011;10787;53.364;-1.480;2024-03-23T01:18:15;14.70;;;2.83;;
21258;SDS011;10787;53.364;-1.480;2024-03-23T01:20:59;16.27;;;3.20;;
21258;SDS011;10787;53.364;-1.480;2024-03-23T01:23:44;14.13;;;3.43;;
21258;SDS011;10787;53.364;-1.480;2024-03-23T01:26:28;12.70;;;3.67;;
21258;SDS011;10787;53.364;-1.480;2024-03-23T01:29:12;19.43;;;4.40;;
21258;SDS011;10787;53.364;-1.480;2024-03-23T01:31:56;11.97;;;3.20;;
21258;SDS011;10787;53.364;-1.480;2024-03-23T01:34:40;14.20;;;3.07;;
21258;SDS011;10787;53.364;-1.480;2024-03-23T01:37:24;19.83;;;3.53;;
21258;SDS011;10787;53.364;-1.480;2024-03-23T01:40:08;15.63;;;3.20;;
21258;SDS011;10787;53.364;-1.480;2024-03-23T01:42:56;11.17;;;2.67;;
21258;SDS011;10787;53.364;-1.480;2024-03-23T01:45:54;11.17;;;2.30;;
21258;SDS011;10787;53.364;-1.480;2024-03-23T01:48:38;10.40;;;2.20;;
21258;SDS011;10787;53.364;-1.480;2024-03-23T01:51:22;15.30;;;2.90;;
21258;SDS011;10787;53.364;-1.480;2024-03-23T01:54:07;11.23;;;2.60;;
21258;SDS011;10787;53.364;-1.480;2024-03-23T01:56:51;10.93;;;2.43;;
21258;SDS011;10787;53.364;-1.480;2024-03-23T01:59:36;11.03;;;2.40;;
21258;SDS011;10787;53.364;-1.480;2024-03-23T02:02:20;11.60;;;2.20;;
21258;SDS011;10787;53.364;-1.480;2024-03-23T02:05:04;9.30;;;2.03;;
21258;SDS011;10787;53.364;-1.480;2024-03-23T02:07:49;10.83;;;2.17;;
21258;SDS011;10787;53.364;-1.480;2024-03-23T02:10:34;13.07;;;2.30;;
21258;SDS011;10787;53.364;-1.480;2024-03-23T02:13:21;10.30;;;2.23;;
21258;SDS011;10787;53.364;-1.480;2024-03-23T02:16:06;9.70;;;1.90;;
21258;SDS011;10787;53.364;-1.480;2024-03-23T02:18:50;10.30;;;2.10;;
21258;SDS011;10787;53.364;-1.480;2024-03-23T02:21:34;10.07;;;2.27;;
21258;SDS011;10787;53.364;-1.480;2024-03-23T02:24:18;10.53;;;2.20;;
21258;SDS011;10787;53.364;-1.480;2024-03-23T02:27:02;13.27;;;2.30;;
21258;SDS011;10787;53.364;-1.480;2024-03-23T02:29:47;10.37;;;2.23;;
21258;SDS011;10787;53.364;-1.480;2024-03-23T02:32:31;14.83;;;2.30;;
21258;SDS011;10787;53.364;-1.480;2024-03-23T02:35:15;10.13;;;2.00;;
21258;SDS011;10787;53.364;-1.480;2024-03-23T02:37:59;16.30;;;2.47;;
21258;SDS011;10787;53.364;-1.480;2024-03-23T02:40:44;9.80;;;2.00;;
21258;SDS011;10787;53.364;-1.480;2024-03-23T02:43:28;11.87;;;2.43;;
21258;SDS011;10787;53.364;-1.480;2024-03-23T02:46:12;10.00;;;2.37;;
21258;SDS011;10787;53.364;-1.480;2024-03-23T02:48:56;10.27;;;2.43;;
21258;SDS011;10787;53.364;-1.480;2024-03-23T02:51:40;16.33;;;2.63;;
21258;SDS011;10787;53.364;-1.480;2024-03-23T02:54:25;11.23;;;2.50;;
21258;SDS011;10787;53.364;-1.480;2024-03-23T02:57:09;16.03;;;2.40;;
21258;SDS011;10787;53.364;-1.480;2024-03-23T02:59:57;14.13;;;2.20;;
21258;SDS011;10787;53.364;-1.480;2024-03-23T03:02:41;10.80;;;2.30;;
21258;SDS011;10787;53.364;-1.480;2024-03-23T03:05:25;9.37;;;2.13;;
21258;SDS011;10787;53.364;-1.480;2024-03-23T03:08:09;8.30;;;2.10;;
21258;SDS011;10787;53.364;-1.480;2024-03-23T03:10:53;12.30;;;2.50;;
21258;SDS011;10787;53.364;-1.480;2024-03-23T03:13:38;9.40;;;2.00;;
21258;SDS011;10787;53.364;-1.480;2024-03-23T03:16:23;12.43;;;2.40;;
21258;SDS011;10787;53.364;-1.480;2024-03-23T03:19:07;12.87;;;2.03;;
21258;SDS011;10787;53.364;-1.480;2024-03-23T03:21:51;8.67;;;2.03;;
21258;SDS011;10787;53.364;-1.480;2024-03-23T03:24:35;11.70;;;2.17;;
21258;SDS011;10787;53.364;-1.480;2024-03-23T03:27:19;10.47;;;2.13;;
21258;SDS011;10787;53.364;-1.480;2024-03-23T03:30:04;10.00;;;2.20;;
21258;SDS011;10787;53.364;-1.480;2024-03-23T03:32:51;9.67;;;2.20;;
21258;SDS011;10787;53.364;-1.480;2024-03-23T03:35:38;9.87;;;2.00;;
21258;SDS011;10787;53.364;-1.480;2024-03-23T03:38:23;10.77;;;2.50;;
21258;SDS011;10787;53.364;-1.480;2024-03-23T03:41:07;13.87;;;2.17;;
21258;SDS011;10787;53.364;-1.480;2024-03-23T03:43:51;11.13;;;1.90;;
21258;SDS011;10787;53.364;-1.480;2024-03-23T03:46:35;12.10;;;2.30;;
21258;SDS011;10787;53.364;-1.480;2024-03-23T03:49:19;12.83;;;2.67;;
21258;SDS011;10787;53.364;-1.480;2024-03-23T03:52:03;10.87;;;1.97;;
21258;SDS011;10787;53.364;-1.480;2024-03-23T03:54:48;13.93;;;2.13;;
21258;SDS011;10787;53.364;-1.480;2024-03-23T03:57:32;13.37;;;2.50;;
21258;SDS011;10787;53.364;-1.480;2024-03-23T04:00:17;12.40;;;2.17;;
21258;SDS011;10787;53.364;-1.480;2024-03-23T04:03:02;11.90;;;2.30;;
21258;SDS011;10787;53.364;-1.480;2024-03-23T04:06:04;10.60;;;2.00;;
21258;SDS011;10787;53.364;-1.480;2024-03-23T04:08:48;13.27;;;2.43;;
21258;SDS011;10787;53.364;-1.480;2024-03-23T04:11:32;11.40;;;2.23;;
21258;SDS011;10787;53.364;-1.480;2024-03-23T04:14:16;9.47;;;2.30;;
21258;SDS011;10787;53.364;-1.480;2024-03-23T04:17:00;12.87;;;2.50;;
21258;SDS011;10787;53.364;-1.480;2024-03-23T04:19:45;12.60;;;2.40;;
21258;SDS011;10787;53.364;-1.480;2024-03-23T04:22:29;17.47;;;2.80;;
21258;SDS011;10787;53.364;-1.480;2024-03-23T04:25:13;14.63;;;2.50;;
21258;SDS011;10787;53.364;-1.480;2024-03-23T04:27:58;10.87;;;2.17;;
21258;SDS011;10787;53.364;-1.480;2024-03-23T04:30:42;10.50;;;2.43;;
21258;SDS011;10787;53.364;-1.480;2024-03-23T04:33:26;14.10;;;2.70;;
21258;SDS011;10787;53.364;-1.480;2024-03-23T04:36:10;14.47;;;2.80;;
21258;SDS011;10787;53.364;-1.480;2024-03-23T04:38:56;11.60;;;2.10;;
21258;SDS011;10787;53.364;-1.480;2024-03-23T04:41:42;10.80;;;2.70;;
21258;SDS011;10787;53.364;-1.480;2024-03-23T04:44:26;12.67;;;2.30;;
21258;SDS011;10787;53.364;-1.480;2024-03-23T04:47:10;14.33;;;2.80;;
21258;SDS011;10787;53.364;-1.480;2024-03-23T04:49:54;12.83;;;2.43;;
21258;SDS011;10787;53.364;-1.480;2024-03-23T04:52:39;11.47;;;2.53;;
21258;SDS011;10787;53.364;-1.480;2024-03-23T04:55:23;12.83;;;2.87;;
21258;SDS011;10787;53.364;-1.480;2024-03-23T04:58:07;8.13;;;2.20;;
21258;SDS011;10787;53.364;-1.480;2024-03-23T05:00:54;9.67;;;2.70;;
21258;SDS011;10787;53.364;-1.480;2024-03-23T05:03:39;11.73;;;2.57;;
21258;SDS011;10787;53.364;-1.480;2024-03-23T05:06:25;11.67;;;2.30;;
21258;SDS011;10787;53.364;-1.480;2024-03-23T05:09:09;7.83;;;2.03;;
21258;SDS011;10787;53.364;-1.480;2024-03-23T05:11:56;9.63;;;2.20;;
21258;SDS011;10787;53.364;-1.480;2024-03-23T05:14:40;8.47;;;2.10;;
21258;SDS011;10787;53.364;-1.480;2024-03-23T05:17:24;10.67;;;2.23;;
21258;SDS011;10787;53.364;-1.480;2024-03-23T05:20:09;11.17;;;2.40;;
21258;SDS011;10787;53.364;-1.480;2024-03-23T05:22:55;11.83;;;2.43;;
21258;SDS011;10787;53.364;-1.480;2024-03-23T05:25:40;13.87;;;2.43;;
21258;SDS011;10787;53.364;-1.480;2024-03-23T05:28:24;12.60;;;2.10;;
21258;SDS011;10787;53.364;-1.480;2024-03-23T05:31:08;14.63;;;2.00;;
21258;SDS011;10787;53.364;-1.480;2024-03-23T05:33:53;10.17;;;2.20;;
21258;SDS011;10787;53.364;-1.480;2024-03-23T05:36:38;8.90;;;1.87;;
21258;SDS011;10787;53.364;-1.480;2024-03-23T05:39:23;12.00;;;2.27;;
21258;SDS011;10787;53.364;-1.480;2024-03-23T05:42:07;7.30;;;2.03;;
21258;SDS011;10787;53.364;-1.480;2024-03-23T05:44:52;10.60;;;2.23;;
21258;SDS011;10787;53.364;-1.480;2024-03-23T05:47:36;11.83;;;2.63;;
21258;SDS011;10787;53.364;-1.480;2024-03-23T05:50:20;9.20;;;2.10;;
21258;SDS011;10787;53.364;-1.480;2024-03-23T05:53:04;12.30;;;2.33;;
21258;SDS011;10787;53.364;-1.480;2024-03-23T05:55:49;11.10;;;2.73;;
21258;SDS011;10787;53.364;-1.480;2024-03-23T05:58:34;7.57;;;2.20;;
21258;SDS011;10787;53.364;-1.480;2024-03-23T06:01:20;8.63;;;2.03;;
21258;SDS011;10787;53.364;-1.480;2024-03-23T06:04:05;5.80;;;1.80;;
21258;SDS011;10787;53.364;-1.480;2024-03-23T06:06:51;12.00;;;1.87;;
21258;SDS011;10787;53.364;-1.480;2024-03-23T06:09:38;10.30;;;1.77;;
21258;SDS011;10787;53.364;-1.480;2024-03-23T06:12:23;7.40;;;1.77;;
21258;SDS011;10787;53.364;-1.480;2024-03-23T06:15:07;8.47;;;1.70;;
21258;SDS011;10787;53.364;-1.480;2024-03-23T06:17:54;10.43;;;1.67;;
21258;SDS011;10787;53.364;-1.480;2024-03-23T06:20:38;10.50;;;1.90;;
21258;SDS011;10787;53.364;-1.480;2024-03-23T06:23:22;10.47;;;1.83;;
21258;SDS011;10787;53.364;-1.480;2024-03-23T06:26:06;8.17;;;1.80;;
21258;SDS011;10787;53.364;-1.480;2024-03-23T06:28:52;10.97;;;1.90;;
21258;SDS011;10787;53.364;-1.480;2024-03-23T06:31:36;13.67;;;1.90;;
21258;SDS011;10787;53.364;-1.480;2024-03-23T06:34:20;8.03;;;1.77;;
21258;SDS011;10787;53.364;-1.480;2024-03-23T06:37:07;11.33;;;2.17;;
21258;SDS011;10787;53.364;-1.480;2024-03-23T06:39:53;14.20;;;2.00;;
21258;SDS011;10787;53.364;-1.480;2024-03-23T06:42:37;8.13;;;2.00;;
21258;SDS011;10787;53.364;-1.480;2024-03-23T06:45:22;9.73;;;2.20;;
21258;SDS011;10787;53.364;-1.480;2024-03-23T06:48:12;8.10;;;1.70;;
21258;SDS011;10787;53.364;-1.480;2024-03-23T06:50:57;11.63;;;2.13;;
21258;SDS011;10787;53.364;-1.480;2024-03-23T06:53:42;9.43;;;2.10;;
21258;SDS011;10787;53.364;-1.480;2024-03-23T06:56:26;11.07;;;2.03;;
21258;SDS011;10787;53.364;-1.480;2024-03-23T06:59:10;10.07;;;1.80;;
21258;SDS011;10787;53.364;-1.480;2024-03-23T07:01:55;12.60;;;1.90;;
21258;SDS011;10787;53.364;-1.480;2024-03-23T07:04:39;9.33;;;2.23;;
21258;SDS011;10787;53.364;-1.480;2024-03-23T07:07:23;14.00;;;2.20;;
21258;SDS011;10787;53.364;-1.480;2024-03-23T07:10:08;10.43;;;3.37;;
21258;SDS011;10787;53.364;-1.480;2024-03-23T07:12:53;14.90;;;4.47;;
21258;SDS011;10787;53.364;-1.480;2024-03-23T07:15:37;13.77;;;4.10;;
21258;SDS011;10787;53.364;-1.480;2024-03-23T07:18:22;12.43;;;3.47;;
21258;SDS011;10787;53.364;-1.480;2024-03-23T07:21:06;11.53;;;2.23;;
21258;SDS011;10787;53.364;-1.480;2024-03-23T07:23:50;5.47;;;1.70;;
21258;SDS011;10787;53.364;-1.480;2024-03-23T07:26:35;7.97;;;1.70;;
21258;SDS011;10787;53.364;-1.480;2024-03-23T07:29:19;9.33;;;1.60;;
21258;SDS011;10787;53.364;-1.480;2024-03-23T07:32:04;9.20;;;2.17;;
21258;SDS011;10787;53.364;-1.480;2024-03-23T07:34:49;9.33;;;1.60;;
21258;SDS011;10787;53.364;-1.480;2024-03-23T07:37:36;6.43;;;1.97;;
21258;SDS011;10787;53.364;-1.480;2024-03-23T07:40:20;12.00;;;2.03;;
21258;SDS011;10787;53.364;-1.480;2024-03-23T07:43:05;7.03;;;2.10;;
21258;SDS011;10787;53.364;-1.480;2024-03-23T07:45:52;12.37;;;2.53;;
21258;SDS011;10787;53.364;-1.480;2024-03-23T07:48:37;13.30;;;2.67;;
21258;SDS011;10787;53.364;-1.480;2024-03-23T07:51:22;9.17;;;1.90;;
21258;SDS011;10787;53.364;-1.480;2024-03-23T07:54:07;10.63;;;2.50;;
21258;SDS011;10787;53.364;-1.480;2024-03-23T07:56:51;13.07;;;2.80;;
21258;SDS011;10787;53.364;-1.480;2024-03-23T07:59:35;10.70;;;2.60;;
21258;SDS011;10787;53.364;-1.480;2024-03-23T08:02:20;11.70;;;2.90;;
21258;SDS011;10787;53.364;-1.480;2024-03-23T08:05:04;12.87;;;2.40;;
21258;SDS011;10787;53.364;-1.480;2024-03-23T08:07:50;13.13;;;2.20;;
21258;SDS011;10787;53.364;-1.480;2024-03-23T08:10:35;8.73;;;1.87;;
21258;SDS011;10787;53.364;-1.480;2024-03-23T08:13:19;12.33;;;1.97;;
21258;SDS011;10787;53.364;-1.480;2024-03-23T08:16:03;9.97;;;1.90;;
21258;SDS011;10787;53.364;-1.480;2024-03-23T08:18:48;11.10;;;2.30;;
21258;SDS011;10787;53.364;-1.480;2024-03-23T08:21:37;9.53;;;2.00;;
21258;SDS011;10787;53.364;-1.480;2024-03-23T08:24:22;11.53;;;1.93;;
21258;SDS011;10787;53.364;-1.480;2024-03-23T08:27:06;8.13;;;1.90;;
21258;SDS011;10787;53.364;-1.480;2024-03-23T08:29:50;9.43;;;2.00;;
21258;SDS011;10787;53.364;-1.480;2024-03-23T08:32:36;10.23;;;2.10;;
21258;SDS011;10787;53.364;-1.480;2024-03-23T08:35:20;9.83;;;2.00;;
21258;SDS011;10787;53.364;-1.480;2024-03-23T08:38:04;9.03;;;2.10;;
21258;SDS011;10787;53.364;-1.480;2024-03-23T08:40:56;10.70;;;1.80;;
21258;SDS011;10787;53.364;-1.480;2024-03-23T08:43:41;10.30;;;2.30;;
21258;SDS011;10787;53.364;-1.480;2024-03-23T08:46:26;13.57;;;2.30;;
21258;SDS011;10787;53.364;-1.480;2024-03-23T08:49:11;11.33;;;2.00;;
21258;SDS011;10787;53.364;-1.480;2024-03-23T08:51:56;9.23;;;2.00;;
21258;SDS011;10787;53.364;-1.480;2024-03-23T08:54:39;13.00;;;2.50;;
21258;SDS011;10787;53.364;-1.480;2024-03-23T08:57:24;12.40;;;2.20;;
21258;SDS011;10787;53.364;-1.480;2024-03-23T09:00:09;8.03;;;2.03;;
21258;SDS011;10787;53.364;-1.480;2024-03-23T09:02:55;11.53;;;2.03;;
21258;SDS011;10787;53.364;-1.480;2024-03-23T09:05:40;8.83;;;2.13;;
21258;SDS011;10787;53.364;-1.480;2024-03-23T09:08:24;9.87;;;1.80;;
21258;SDS011;10787;53.364;-1.480;2024-03-23T09:11:10;10.33;;;1.83;;
21258;SDS011;10787;53.364;-1.480;2024-03-23T09:13:56;8.80;;;1.90;;
21258;SDS011;10787;53.364;-1.480;2024-03-23T09:16:40;11.20;;;2.30;;
21258;SDS011;10787;53.364;-1.480;2024-03-23T09:19:29;8.13;;;2.03;;
21258;SDS011;10787;53.364;-1.480;2024-03-23T09:22:14;7.67;;;1.93;;
21258;SDS011;10787;53.364;-1.480;2024-03-23T09:24:58;7.67;;;1.80;;
21258;SDS011;10787;53.364;-1.480;2024-03-23T09:27:42;5.60;;;1.50;;
21258;SDS011;10787;53.364;-1.480;2024-03-23T09:30:26;9.20;;;1.70;;
21258;SDS011;10787;53.364;-1.480;2024-03-23T09:33:10;8.17;;;1.60;;
21258;SDS011;10787;53.364;-1.480;2024-03-23T09:35:55;9.87;;;1.70;;
21258;SDS011;10787;53.364;-1.480;2024-03-23T09:38:43;5.73;;;1.43;;
21258;SDS011;10787;53.364;-1.480;2024-03-23T09:41:28;8.83;;;1.70;;
21258;SDS011;10787;53.364;-1.480;2024-03-23T09:44:12;11.10;;;2.00;;
21258;SDS011;10787;53.364;-1.480;2024-03-23T09:46:56;9.97;;;2.10;;
21258;SDS011;10787;53.364;-1.480;2024-03-23T09:49:41;10.20;;;1.93;;
21258;SDS011;10787;53.364;-1.480;2024-03-23T09:52:25;13.33;;;1.83;;
21258;SDS011;10787;53.364;-1.480;2024-03-23T09:55:09;11.40;;;1.90;;
21258;SDS011;10787;53.364;-1.480;2024-03-23T09:57:54;12.20;;;2.13;;
21258;SDS011;10787;53.364;-1.480;2024-03-23T10:00:38;7.57;;;1.87;;
21258;SDS011;10787;53.364;-1.480;2024-03-23T10:03:23;7.50;;;1.70;;
21258;SDS011;10787;53.364;-1.480;2024-03-23T10:06:07;6.50;;;1.60;;
21258;SDS011;10787;53.364;-1.480;2024-03-23T10:08:52;8.07;;;1.47;;
21258;SDS011;10787;53.364;-1.480;2024-03-23T10:11:38;7.33;;;1.47;;
21258;SDS011;10787;53.364;-1.480;2024-03-23T10:14:31;6.23;;;1.50;;
21258;SDS011;10787;53.364;-1.480;2024-03-23T10:20:09;8.17;;;2.20;;
21258;SDS011;10787;53.364;-1.480;2024-03-23T10:22:55;8.83;;;1.97;;
21258;SDS011;10787;53.364;-1.480;2024-03-23T10:25:40;7.80;;;1.67;;
21258;SDS011;10787;53.364;-1.480;2024-03-23T10:28:24;7.73;;;1.90;;
21258;SDS011;10787;53.364;-1.480;2024-03-23T10:31:11;10.53;;;1.67;;
21258;SDS011;10787;53.364;-1.480;2024-03-23T10:33:56;7.67;;;1.60;;
21258;SDS011;10787;53.364;-1.480;2024-03-23T10:36:41;9.43;;;2.00;;
21258;SDS011;10787;53.364;-1.480;2024-03-23T10:39:27;9.50;;;2.03;;
21258;SDS011;10787;53.364;-1.480;2024-03-23T10:42:14;8.10;;;2.10;;
21258;SDS011;10787;53.364;-1.480;2024-03-23T10:44:59;7.87;;;1.70;;
21258;SDS011;10787;53.364;-1.480;2024-03-23T10:47:44;8.10;;;1.80;;
21258;SDS011;10787;53.364;-1.480;2024-03-23T10:50:30;10.37;;;2.00;;
21258;SDS011;10787;53.364;-1.480;2024-03-23T10:53:15;10.43;;;1.97;;
21258;SDS011;10787;53.364;-1.480;2024-03-23T10:56:01;4.60;;;1.70;;
21258;SDS011;10787;53.364;-1.480;2024-03-23T10:58:46;5.93;;;1.30;;
21258;SDS011;10787;53.364;-1.480;2024-03-23T11:01:32;11.90;;;1.60;;
21258;SDS011;10787;53.364;-1.480;2024-03-23T11:04:28;8.30;;;1.60;;
21258;SDS011;10787;53.364;-1.480;2024-03-23T11:07:28;5.17;;;1.50;;
21258;SDS011;10787;53.364;-1.480;2024-03-23T11:10:28;6.60;;;1.33;;
21258;SDS011;10787;53.364;-1.480;2024-03-23T11:13:23;5.20;;;1.40;;
21258;SDS011;10787;53.364;-1.480;2024-03-23T11:22:37;6.33;;;1.57;;
21258;SDS011;10787;53.364;-1.480;2024-03-23T11:25:25;5.33;;;1.47;;
21258;SDS011;10787;53.364;-1.480;2024-03-23T11:28:10;7.90;;;1.50;;
21258;SDS011;10787;53.364;-1.480;2024-03-23T11:30:59;6.87;;;1.83;;
21258;SDS011;10787;53.364;-1.480;2024-03-23T11:33:43;5.77;;;1.63;;
21258;SDS011;10787;53.364;-1.480;2024-03-23T11:36:28;9.07;;;3.43;;
21258;SDS011;10787;53.364;-1.480;2024-03-23T11:39:16;5.23;;;1.80;;
21258;SDS011;10787;53.364;-1.480;2024-03-23T11:42:01;10.57;;;3.80;;
21258;SDS011;10787;53.364;-1.480;2024-03-23T11:44:46;11.30;;;3.80;;
21258;SDS011;10787;53.364;-1.480;2024-03-23T11:47:31;6.63;;;1.90;;
21258;SDS011;10787;53.364;-1.480;2024-03-23T11:50:21;5.33;;;1.77;;
21258;SDS011;10787;53.364;-1.480;2024-03-23T11:53:09;8.10;;;1.83;;
21258;SDS011;10787;53.364;-1.480;2024-03-23T11:56:03;9.17;;;1.70;;
21258;SDS011;10787;53.364;-1.480;2024-03-23T11:58:48;5.73;;;1.60;;
21258;SDS011;10787;53.364;-1.480;2024-03-23T12:01:32;6.90;;;1.53;;
21258;SDS011;10787;53.364;-1.480;2024-03-23T12:04:25;7.53;;;1.70;;
21258;SDS011;10787;53.364;-1.480;2024-03-23T12:07:13;6.63;;;1.70;;
21258;SDS011;10787;53.364;-1.480;2024-03-23T12:10:03;6.47;;;1.90;;
21258;SDS011;10787;53.364;-1.480;2024-03-23T12:13:01;7.63;;;1.53;;
21258;SDS011;10787;53.364;-1.480;2024-03-23T12:15:47;4.43;;;1.40;;
21258;SDS011;10787;53.364;-1.480;2024-03-23T12:18:34;8.50;;;1.60;;
21258;SDS011;10787;53.364;-1.480;2024-03-23T12:21:18;5.40;;;1.90;;
21258;SDS011;10787;53.364;-1.480;2024-03-23T12:24:03;6.97;;;1.50;;
21258;SDS011;10787;53.364;-1.480;2024-03-23T12:26:48;5.28;;;1.30;;
21258;SDS011;10787;53.364;-1.480;2024-03-23T12:29:34;5.63;;;1.30;;
21258;SDS011;10787;53.364;-1.480;2024-03-23T12:32:18;4.20;;;1.30;;
21258;SDS011;10787;53.364;-1.480;2024-03-23T12:35:03;4.47;;;1.30;;
21258;SDS011;10787;53.364;-1.480;2024-03-23T12:37:48;4.68;;;1.52;;
21258;SDS011;10787;53.364;-1.480;2024-03-23T12:40:32;4.35;;;1.40;;
21258;SDS011;10787;53.364;-1.480;2024-03-23T12:43:17;4.20;;;1.30;;
21258;SDS011;10787;53.364;-1.480;2024-03-23T12:46:02;6.88;;;1.70;;
21258;SDS011;10787;53.364;-1.480;2024-03-23T12:48:46;6.25;;;1.67;;
21258;SDS011;10787;53.364;-1.480;2024-03-23T12:51:30;5.65;;;1.50;;
21258;SDS011;10787;53.364;-1.480;2024-03-23T12:54:15;5.40;;;1.50;;
21258;SDS011;10787;53.364;-1.480;2024-03-23T12:57:02;4.05;;;1.52;;
21258;SDS011;10787;53.364;-1.480;2024-03-23T12:59:47;4.38;;;1.70;;
21258;SDS011;10787;53.364;-1.480;2024-03-23T13:02:34;4.22;;;1.48;;
21258;SDS011;10787;53.364;-1.480;2024-03-23T13:05:18;8.05;;;1.52;;
21258;SDS011;10787;53.364;-1.480;2024-03-23T13:08:02;5.32;;;1.60;;
21258;SDS011;10787;53.364;-1.480;2024-03-23T13:10:47;6.63;;;1.60;;
21258;SDS011;10787;53.364;-1.480;2024-03-23T13:13:34;3.25;;;1.30;;
21258;SDS011;10787;53.364;-1.480;2024-03-23T13:16:21;6.72;;;1.40;;
21258;SDS011;10787;53.364;-1.480;2024-03-23T13:19:06;10.20;;;2.30;;
21258;SDS011;10787;53.364;-1.480;2024-03-23T13:21:50;5.75;;;1.52;;
21258;SDS011;10787;53.364;-1.480;2024-03-23T13:24:34;7.28;;;1.65;;
21258;SDS011;10787;53.364;-1.480;2024-03-23T13:27:18;8.13;;;1.60;;
21258;SDS011;10787;53.364;-1.480;2024-03-23T13:30:03;9.23;;;1.70;;
21258;SDS011;10787;53.364;-1.480;2024-03-23T13:32:48;7.63;;;1.63;;
21258;SDS011;10787;53.364;-1.480;2024-03-23T13:35:32;13.82;;;2.63;;
21258;SDS011;10787;53.364;-1.480;2024-03-23T13:38:16;6.35;;;1.80;;
21258;SDS011;10787;53.364;-1.480;2024-03-23T13:41:01;5.57;;;1.80;;
21258;SDS011;10787;53.364;-1.480;2024-03-23T13:43:48;5.10;;;1.50;;
21258;SDS011;10787;53.364;-1.480;2024-03-23T13:46:32;7.47;;;2.08;;
21258;SDS011;10787;53.364;-1.480;2024-03-23T13:49:27;5.90;;;1.98;;
21258;SDS011;10787;53.364;-1.480;2024-03-23T13:52:11;8.40;;;1.77;;
21258;SDS011;10787;53.364;-1.480;2024-03-23T13:54:55;4.80;;;1.60;;
21258;SDS011;10787;53.364;-1.480;2024-03-23T13:57:40;7.20;;;1.70;;
21258;SDS011;10787;53.364;-1.480;2024-03-23T14:00:24;6.93;;;1.90;;
21258;SDS011;10787;53.364;-1.480;2024-03-23T14:03:08;7.03;;;1.70;;
21258;SDS011;10787;53.364;-1.480;2024-03-23T14:05:59;7.35;;;2.10;;
21258;SDS011;10787;53.364;-1.480;2024-03-23T14:08:46;10.13;;;2.05;;
21258;SDS011;10787;53.364;-1.480;2024-03-23T14:11:38;6.63;;;1.80;;
21258;SDS011;10787;53.364;-1.480;2024-03-23T14:14:24;5.95;;;1.63;;
21258;SDS011;10787;53.364;-1.480;2024-03-23T14:17:08;7.25;;;1.90;;
21258;SDS011;10787;53.364;-1.480;2024-03-23T14:19:52;10.13;;;2.10;;
21258;SDS011;10787;53.364;-1.480;2024-03-23T14:22:37;5.47;;;1.80;;
21258;SDS011;10787;53.364;-1.480;2024-03-23T14:25:22;11.15;;;2.08;;
21258;SDS011;10787;53.364;-1.480;2024-03-23T14:28:10;6.43;;;1.85;;
21258;SDS011;10787;53.364;-1.480;2024-03-23T14:30:58;6.40;;;1.80;;
21258;SDS011;10787;53.364;-1.480;2024-03-23T14:33:42;8.18;;;2.00;;
21258;SDS011;10787;53.364;-1.480;2024-03-23T14:36:33;5.78;;;1.80;;
21258;SDS011;10787;53.364;-1.480;2024-03-23T14:39:18;6.05;;;1.85;;
21258;SDS011;10787;53.364;-1.480;2024-03-23T14:42:06;6.50;;;1.98;;
21258;SDS011;10787;53.364;-1.480;2024-03-23T14:44:52;6.57;;;1.75;;
21258;SDS011;10787;53.364;-1.480;2024-03-23T14:47:36;4.30;;;1.73;;
21258;SDS011;10787;53.364;-1.480;2024-03-23T14:50:20;4.82;;;1.48;;
21258;SDS011;10787;53.364;-1.480;2024-03-23T14:53:05;5.32;;;1.73;;
21258;SDS011;10787;53.364;-1.480;2024-03-23T14:55:49;4.35;;;1.73;;
21258;SDS011;10787;53.364;-1.480;2024-03-23T14:58:34;7.35;;;2.05;;
21258;SDS011;10787;53.364;-1.480;2024-03-23T15:01:19;4.78;;;1.45;;
21258;SDS011;10787;53.364;-1.480;2024-03-23T15:04:04;6.32;;;1.77;;
21258;SDS011;10787;53.364;-1.480;2024-03-23T15:06:49;7.28;;;1.90;;
21258;SDS011;10787;53.364;-1.480;2024-03-23T15:09:33;4.35;;;1.60;;
21258;SDS011;10787;53.364;-1.480;2024-03-23T15:12:18;6.55;;;1.80;;
21258;SDS011;10787;53.364;-1.480;2024-03-23T15:15:03;4.90;;;1.90;;
21258;SDS011;10787;53.364;-1.480;2024-03-23T15:17:47;8.30;;;1.90;;
21258;SDS011;10787;53.364;-1.480;2024-03-23T15:20:31;6.75;;;1.88;;
21258;SDS011;10787;53.364;-1.480;2024-03-23T15:23:17;7.50;;;1.85;;
21258;SDS011;10787;53.364;-1.480;2024-03-23T15:26:02;6.68;;;2.10;;
21258;SDS011;10787;53.364;-1.480;2024-03-23T15:28:50;9.18;;;1.90;;
21258;SDS011;10787;53.364;-1.480;2024-03-23T15:31:40;9.93;;;2.20;;
21258;SDS011;10787;53.364;-1.480;2024-03-23T15:34:24;6.88;;;2.17;;
21258;SDS011;10787;53.364;-1.480;2024-03-23T15:37:09;12.03;;;2.50;;
21258;SDS011;10787;53.364;-1.480;2024-03-23T15:39:53;9.37;;;2.40;;
21258;SDS011;10787;53.364;-1.480;2024-03-23T15:42:37;14.47;;;3.30;;
21258;SDS011;10787;53.364;-1.480;2024-03-23T15:45:21;13.47;;;2.83;;
21258;SDS011;10787;53.364;-1.480;2024-03-23T15:48:05;8.33;;;2.30;;
21258;SDS011;10787;53.364;-1.480;2024-03-23T15:50:54;10.13;;;2.60;;
21258;SDS011;10787;53.364;-1.480;2024-03-23T15:53:39;12.77;;;2.10;;
21258;SDS011;10787;53.364;-1.480;2024-03-23T15:56:23;12.23;;;2.50;;
21258;SDS011;10787;53.364;-1.480;2024-03-23T15:59:07;11.23;;;2.30;;
21258;SDS011;10787;53.364;-1.480;2024-03-23T16:01:52;10.43;;;2.60;;
21258;SDS011;10787;53.364;-1.480;2024-03-23T16:04:39;8.10;;;2.30;;
21258;SDS011;10787;53.364;-1.480;2024-03-23T16:07:23;11.25;;;2.80;;
21258;SDS011;10787;53.364;-1.480;2024-03-23T16:10:08;8.23;;;2.28;;
21258;SDS011;10787;53.364;-1.480;2024-03-23T16:12:55;7.90;;;2.37;;
21258;SDS011;10787;53.364;-1.480;2024-03-23T16:15:40;8.87;;;2.20;;
21258;SDS011;10787;53.364;-1.480;2024-03-23T16:18:24;8.40;;;2.30;;
21258;SDS011;10787;53.364;-1.480;2024-03-23T16:21:09;7.40;;;2.00;;
21258;SDS011;10787;53.364;-1.480;2024-03-23T16:23:54;7.27;;;1.97;;
21258;SDS011;10787;53.364;-1.480;2024-03-23T16:26:38;4.27;;;1.80;;
21258;SDS011;10787;53.364;-1.480;2024-03-23T16:29:22;6.43;;;1.92;;
21258;SDS011;10787;53.364;-1.480;2024-03-23T16:32:06;7.55;;;2.60;;
21258;SDS011;10787;53.364;-1.480;2024-03-23T16:34:50;7.38;;;2.53;;
21258;SDS011;10787;53.364;-1.480;2024-03-23T16:37:35;7.25;;;2.58;;
21258;SDS011;10787;53.364;-1.480;2024-03-23T16:40:19;7.55;;;2.30;;
21258;SDS011;10787;53.364;-1.480;2024-03-23T16:43:03;8.25;;;2.55;;
21258;SDS011;10787;53.364;-1.480;2024-03-23T16:45:51;8.65;;;3.13;;
21258;SDS011;10787;53.364;-1.480;2024-03-23T16:48:42;11.80;;;3.03;;
21258;SDS011;10787;53.364;-1.480;2024-03-23T16:51:27;9.15;;;3.03;;
21258;SDS011;10787;53.364;-1.480;2024-03-23T16:54:11;9.68;;;3.15;;
21258;SDS011;10787;53.364;-1.480;2024-03-23T16:56:56;10.32;;;3.28;;
21258;SDS011;10787;53.364;-1.480;2024-03-23T16:59:39;11.90;;;3.00;;
21258;SDS011;10787;53.364;-1.480;2024-03-23T17:02:23;13.00;;;3.28;;
21258;SDS011;10787;53.364;-1.480;2024-03-23T17:05:07;8.10;;;3.03;;
21258;SDS011;10787;53.364;-1.480;2024-03-23T17:07:51;11.43;;;3.33;;
21258;SDS011;10787;53.364;-1.480;2024-03-23T17:10:37;9.23;;;3.53;;
21258;SDS011;10787;53.364;-1.480;2024-03-23T17:13:24;11.73;;;3.63;;
21258;SDS011;10787;53.364;-1.480;2024-03-23T17:16:08;13.50;;;3.83;;